Dalwhinnie, United Kingdom
Current Conditions -  °F | °C
As of 10:20 PM on Sunday 21 Dec 2014 (Local Time) from EGPE Reporting Station
Light Rain Light Rain  
Wind Chill: 40°   Ceiling: Unl
Heat Index: 46°   Visibility: 6mi
Dew Point: 43°   Wind: 14mph
Humidity: 87%   Direction: 240°WSW
Pressure: 29.47"   Gusts: NA
Location:  56.94°N, 4.24°W
Report Text: EGPE 212220Z AUTO 24012KT 9999 -RA FEW029/// SCT041/// 08/06 Q0998
Loading
Personal Weather Stations






























Interactive Weather Map New forecast layout! Learn more

10-Day Weather Forecast

Advertisements
Track Severe Weather on mobile